Tiempo atmosférico en la estación meteorológica de La Aldea de San Nicolás, Las Palmas (318 m.)



Fecha
DESCASC
Temp. máxima en grados centígrados (hora)
DESCASC
Temp. mínima en grados centígrados (hora)
DESCASC
Temp. media en grados centígrados
DESCASC
Racha de viento máxima en m/sg (hora)
DESCASC
Velocidad máxima media en intervalos de 10 minutos(hora)
DESCASC
Precipitaciones diarias en mm
DESCASC
Precipitaciones de 00:00 a 06:00 en mm
DESCASC
Precipitaciones de 06:00 a 12:00 en mm
DESCASC
Precipitaciones de 12:00 a 18:00 en mm
DESCASC
Precipitaciones de 18:00 a 24:00 en mm
DESCASC
18-08-2019 27.6 (12:10) 23.9 (07:50) 25.8 18.33 (14:00) 10.56 (16:30) 0 0 0 0 0
17-08-2019 30.4 (12:00) 22 (08:20) 26.2 20 (14:00) 12.5 (13:50) 0 0 0 0 0
16-08-2019 28.1 (15:40) 20.8 (07:40) 24.4 17.78 (13:30) 10.28 (18:40) 0 0 0 0 0
15-08-2019 26.7 (16:20) 19.4 (00:00) 23.1 20 (17:50) 11.94 (17:30) 0 0 0 0 0
14-08-2019 26.4 (14:30) 21.2 (00:00) 23.8 19.72 (01:10) 10.83 (21:20) 0 0 0 0 0
13-08-2019 27.5 (16:20) 21.7 (00:00) 24.6 24.44 (18:20) 13.06 (08:00) 0 0 0 0 0
12-08-2019 26.7 (17:20) 22.2 (00:00) 24.5 24.17 (13:20) 14.72 (12:30) 0 0 0 0 0
11-08-2019 27.6 (12:20) 22.8 (00:00) 25.2 23.33 (15:40) 15.28 (07:30) 0 0 0 0 0
10-08-2019 28.1 (15:40) 21.9 (00:00) 25 21.11 (20:40) 13.89 (22:50) 0 0 0 0 0
09-08-2019 29.6 (14:30) 21.4 (00:00) 25.5 14.44 (17:10) 8.61 (20:40) 0 0 0 0 0
08-08-2019 29.3 (15:10) 18.3 (00:00) 23.8 10.83 (13:20) 6.94 (13:50) 0 0 0 0 0
07-08-2019 27.1 (15:10) 21.2 (00:00) 24.2 18.33 (00:10) 11.39 (01:30) 0 0 0 0 0
06-08-2019 29.3 (17:20) 22.2 (00:00) 25.8 21.67 (14:30) 10.83 (19:10) 0 0 0 0 0
05-08-2019 26.5 (14:20) 22.4 (00:00) 24.4 22.5 (16:30) 12.22 (01:10) 0 0 0 0 0
04-08-2019 29.4 (16:20) 21.5 (00:00) 25.4 21.67 (16:30) 12.22 (20:50) 0 0 0 0 0
03-08-2019 27.9 (16:30) 21.4 (00:00) 24.6 -- (--) -- (--) 0 0 0 0 0
02-08-2019 27.1 (14:20) 21.1 (00:00) 24.1 -- (--) -- (--) 0 0 0 0 0
01-08-2019 27.9 (16:20) 21.1 (00:00) 24.5 -- (--) -- (--) 0 0 0 0 0
31-07-2019 28.4 (16:50) 21.3 (00:00) 24.8 -- (--) -- (--) 0 0 0 0 0
30-07-2019 28.1 (16:50) 21.1 (00:00) 24.6 -- (--) -- (--) 0.2 0 0.2 0 0
29-07-2019 28.5 (14:40) 21.8 (00:00) 25.1 -- (--) -- (--) 0 0 0 0 0
28-07-2019 28.6 (17:20) 21.8 (00:00) 25.2 -- (--) -- (--) 0 0 0 0 0
27-07-2019 25.7 (14:40) 21.6 (00:00) 23.7 -- (--) -- (--) 0 0 0 0 0
26-07-2019 28.2 (15:50) 21.8 (00:00) 25 -- (--) -- (--) 0 0 0 0 0
25-07-2019 26.4 (14:30) 19.4 (00:00) 22.9 -- (--) -- (--) 0 0 0 0 0
24-07-2019 25.8 (15:20) 18.9 (00:00) 22.3 -- (--) -- (--) 0 0 0 0 0

Gráficas

Temp. máximas Temp. mínimas Temp. medias Precipitaciones Rachas de viento máximas Velocidades máximas media en intervalos de 10 minutos

Datos horarios

Fecha y hora oficial Temperatura (ºC) Velocidad del viento (km/h) Dirección del viento Racha (km/h) Dirección de racha Precipitación (mm) Presión (hPa) Tendencia (hPa) Humedad (%)
2019-08-22 23:00:00 25.5 4 Sudeste 21 Norte 0 -- -- 49
2019-08-22 22:00:00 22.9 4 Norte 15 Sur 0 -- -- 71
2019-08-22 21:00:00 23.9 3 Sudoeste 16 Sur 0 -- -- 71
2019-08-22 20:00:00 26.1 10 Sur 20 Sur 0 -- -- 62
2019-08-22 19:00:00 29.4 15 Sur 22 Sur 0 -- -- 51
2019-08-22 18:00:00 31.6 14 Sur 32 Nordeste 0 -- -- 45
2019-08-22 17:00:00 33 18 Sur 26 Sur 0 -- -- 39
2019-08-22 16:00:00 35.5 19 Sur 27 Sur 0 -- -- 30
2019-08-22 15:00:00 35.9 13 Sur 21 Sur 0 -- -- 33
2019-08-22 14:00:00 32.6 8 Sur 28 Sur 0 -- -- 37
2019-08-22 13:00:00 30.9 16 Sur 25 Sur 0 -- -- 39
2019-08-22 12:00:00 29.6 15 Sur 27 Sur 0 -- -- 44
2019-08-22 11:00:00 27.3 7 Oeste 19 Sur 0 -- -- 43
2019-08-22 10:00:00 24.4 6 Norte 25 Norte 0 -- -- 49
2019-08-22 09:00:00 21.9 5 Nordeste 26 Norte 0 -- -- 55
2019-08-22 08:00:00 21.3 13 Norte 27 Norte 0 -- -- 59
2019-08-22 07:00:00 21.1 9 Norte 29 Norte 0 -- -- 60
2019-08-22 06:00:00 21.5 21 Norte 35 Norte 0 -- -- 60
2019-08-22 05:00:00 22.1 17 Norte 33 Norte 0 -- -- 54
2019-08-22 04:00:00 21.1 9 Norte 37 Nordeste 0 -- -- 63
2019-08-22 03:00:00 21.4 19 Norte 31 Nordeste 0 -- -- 63
2019-08-22 02:00:00 21.9 21 Nordeste 44 Nordeste 0 -- -- 60
2019-08-22 01:00:00 21.9 33 Nordeste 47 Nordeste 0 -- -- 60
2019-08-22 00:00:00 21.9 31 Nordeste 46 Nordeste 0 -- -- 62
2019-08-21 23:00:00 21.7 29 Nordeste 46 Nordeste 0 -- -- 64
2019-08-21 22:00:00 22.1 27 Nordeste 44 Este 0 -- -- 63
2019-08-21 21:00:00 21.9 27 Nordeste 44 Este 0 -- -- 65
2019-08-21 20:00:00 23 26 Nordeste 42 Nordeste 0 -- -- 63
2019-08-21 19:00:00 24.9 24 Nordeste 40 Nordeste 0 -- -- 58
2019-08-21 18:00:00 25.9 22 Nordeste 37 Nordeste 0 -- -- 57
2019-08-21 17:00:00 26.5 22 Nordeste 35 Nordeste 0 -- -- 55
2019-08-21 16:00:00 28.4 14 Nordeste 27 Nordeste 0 -- -- 49
2019-08-21 15:00:00 27.7 15 Nordeste 31 Nordeste 0 -- -- 51
2019-08-21 14:00:00 27.3 17 Nordeste 31 Nordeste 0 -- -- 52
2019-08-21 13:00:00 25.5 23 Nordeste 39 Este 0 -- -- 57
2019-08-21 12:00:00 25.6 23 Este 44 Este 0 -- -- 54
2019-08-21 11:00:00 24.9 25 Este 42 Este 0 -- -- 52
2019-08-21 10:00:00 24.4 22 Nordeste 44 Nordeste 0 -- -- 49
2019-08-21 09:00:00 22.7 23 Nordeste 41 Nordeste 0 -- -- 52
2019-08-21 08:00:00 22.4 26 Nordeste 47 Nordeste 0 -- -- 53
2019-08-21 07:00:00 21.5 26 Nordeste 46 Nordeste 0 -- -- 63
2019-08-21 06:00:00 21.6 25 Nordeste 51 Nordeste 0 -- -- 63
2019-08-21 05:00:00 21.7 23 Nordeste 52 Este 0 -- -- 63
2019-08-21 04:00:00 22.8 30 Nordeste 48 Nordeste 0 -- -- 57
2019-08-21 03:00:00 22.3 28 Nordeste 47 Nordeste 0 -- -- 60
2019-08-21 02:00:00 22.5 17 Norte 29 Nordeste 0 -- -- 57
2019-08-21 01:00:00 21.9 13 Norte 37 Nordeste 0 -- -- 63
2019-08-21 00:00:00 22.6 22 Nordeste 35 Nordeste 0 -- -- 60
2019-08-20 23:00:00 22.4 21 Norte 35 Norte 0 -- -- 64
2019-08-20 22:00:00 23.4 16 Norte 30 Norte 0 -- -- 60
2019-08-20 21:00:00 23.6 19 Norte 31 Nordeste 0 -- -- 62
2019-08-20 20:00:00 27.1 8 Sur 23 Sur 0 -- -- 52
2019-08-20 19:00:00 30.6 19 Sur 24 Sur 0 -- -- 45
2019-08-20 18:00:00 32.7 16 Sur 26 Sur 0 -- -- 39
2019-08-20 17:00:00 32.6 19 Sur 30 Sur 0 -- -- 40
2019-08-20 16:00:00 32.7 19 Sur 27 Sur 0 -- -- 38
2019-08-20 15:00:00 32.5 18 Sur 29 Sur 0 -- -- 38
2019-08-20 14:00:00 31.3 19 Sur 27 Sur 0 -- -- 42
2019-08-20 13:00:00 30.8 19 Sur 24 Sur 0 -- -- 44
2019-08-20 12:00:00 29.4 16 Sur 21 Sur 0 -- -- 48
2019-08-20 11:00:00 26.7 12 Sur 17 Sur 0 -- -- 59
2019-08-20 10:00:00 22.8 2 Sudoeste 12 Sur 0 -- -- 75
2019-08-20 09:00:00 21 6 Sudeste 15 Sur 0 -- -- 69
2019-08-20 08:00:00 20.1 4 Norte 6 Norte 0 -- -- 78
2019-08-20 07:00:00 19.6 2 Norte 6 Sur 0 -- -- 88
2019-08-20 06:00:00 19.9 0 Calma 4 Norte 0 -- -- 88
2019-08-20 05:00:00 20.2 0 Calma 5 Nordeste 0 -- -- 88
2019-08-20 04:00:00 20.7 0 Calma 17 Sur 0 -- -- 87
2019-08-20 03:00:00 21.6 6 Sur 15 Sur 0 -- -- 84
2019-08-20 02:00:00 21.7 3 Sur 12 Sur 0 -- -- 85
2019-08-20 01:00:00 22.5 4 Sur 7 Sur 0 -- -- 79
2019-08-20 00:00:00 23.2 2 Este 8 Sur 0 -- -- 74
2019-08-19 23:00:00 24 0 Calma 12 Sur 0 -- -- 71
2019-08-19 22:00:00 25.2 0 Calma 10 Sur 0 -- -- 59
2019-08-19 21:00:00 26.9 3 Sur 17 Sur 0 -- -- 52
2019-08-19 20:00:00 29.5 6 Sur 17 Sur 0 -- -- 49
2019-08-19 19:00:00 31.9 13 Sur 27 Sur 0 -- -- 40
2019-08-19 18:00:00 33.8 17 Sur 25 Sur 0 -- -- 38
2019-08-19 17:00:00 36.1 20 Sur 32 Sur 0 -- -- 32
2019-08-19 16:00:00 36.8 18 Sur 30 Sur 0 -- -- 29
2019-08-19 15:00:00 37.8 17 Sur 25 Sur 0 -- -- 27
2019-08-19 14:00:00 37.6 11 Sur 21 Sur 0 -- -- 25
2019-08-19 13:00:00 34.9 16 Sur 26 Sur 0 -- -- 32
2019-08-19 12:00:00 32.1 8 Sudoeste 24 Sur 0 -- -- 37
2019-08-19 11:00:00 31 9 Sur 17 Sur 0 -- -- 38
2019-08-19 10:00:00 28.5 5 Sur 12 Sur 0 -- -- 38
2019-08-19 09:00:00 26.6 5 Nordeste 9 Sudoeste 0 -- -- 36
2019-08-19 08:00:00 27.7 3 Norte 12 Norte 0 -- -- 27
2019-08-19 07:00:00 25.8 4 Este 14 Sur 0 -- -- 46
2019-08-19 06:00:00 25.7 5 Norte 12 Sur 0 -- -- 44
2019-08-19 05:00:00 27.8 2 Nordeste 11 Sur 0 -- -- 35
2019-08-19 04:00:00 29.4 3 Nordeste 14 Sur 0 -- -- 35
2019-08-19 03:00:00 34.1 7 Norte 17 Norte 0 -- -- 16
2019-08-19 02:00:00 34.8 12 Norte 18 Nordeste 0 -- -- 16
2019-08-19 01:00:00 34.7 11 Norte 23 Nordeste 0 -- -- 16
2019-08-19 00:00:00 36 7 Sur 27 Nordeste 0 -- -- 27
2019-08-18 23:00:00 37.1 9 Este 24 Norte 0 -- -- 14
2019-08-18 22:00:00 30.4 8 Sur 17 Sur 0 -- -- 40
2019-08-18 21:00:00 33.4 2 Nordeste 8 Sur 0 -- -- 27
2019-08-18 20:00:00 34.6 8 Sur 11 Sur 0 -- -- 35
2019-08-18 19:00:00 36.2 3 Sur 12 Sur 0 -- -- 33
2019-08-18 18:00:00 38.3 9 Sur 16 Sur 0 -- -- 28
2019-08-18 17:00:00 37.6 13 Sur 21 Sudoeste 0 -- -- 29
2019-08-18 16:00:00 39.4 14 Sudoeste 21 Sur 0 -- -- 27
2019-08-18 15:00:00 38 13 Sur 19 Sudoeste 0 -- -- 28
2019-08-18 14:00:00 37.4 10 Sur 21 Sur 0 -- -- 29
2019-08-18 13:00:00 37 10 Sur 23 Sur 0 -- -- 29
2019-08-18 12:00:00 35.4 10 Sudoeste 17 Sur 0 -- -- 30
2019-08-18 11:00:00 34.8 8 Sur 12 Sur 0 -- -- 30
2019-08-18 10:00:00 30.5 3 Norte 8 Nordeste 0 -- -- 26
2019-08-18 09:00:00 27.2 3 Sudeste 13 Sur 0 -- -- 37
2019-08-18 08:00:00 28.6 6 Sur 12 Norte 0 -- -- 32
2019-08-18 07:00:00 28 4 Norte 8 Sudoeste 0 -- -- 29
2019-08-18 06:00:00 30.2 8 Sur 17 Sur 0 -- -- 31
2019-08-18 05:00:00 29.6 4 Sur 12 Norte 0 -- -- 29
2019-08-18 04:00:00 28.3 5 Sudoeste 15 Sudoeste 0 -- -- 37
2019-08-18 03:00:00 28.7 8 Sur 20 Sur 0 -- -- 38
2019-08-18 02:00:00 30.2 7 Sur 15 Sudoeste 0 -- -- 33
2019-08-18 01:00:00 30.3 4 Oeste 12 Norte 0 -- -- 33
2019-08-18 00:00:00 30.2 2 Norte 10 Nordeste 0 -- -- 33
2019-08-17 23:00:00 29.6 0 Calma 8 Sur 0 -- -- 41
2019-08-17 22:00:00 30.8 0 Calma 5 Nordeste 0 -- -- 34
2019-08-17 21:00:00 31.4 3 Sur 6 Sur 0 -- -- 39
2019-08-17 20:00:00 33.2 0 Calma 13 Sudeste 0 -- -- 32
2019-08-17 19:00:00 37 7 Sur 20 Sudoeste 0 -- -- 32
2019-08-17 18:00:00 37.3 13 Sudoeste 22 Sur 0 -- -- 36
2019-08-17 17:00:00 36.3 15 Sur 31 Sur 0 -- -- 37
2019-08-17 16:00:00 38.3 16 Sur 26 Sur 0 -- -- 30
2019-08-17 15:00:00 38.8 20 Sur 30 Sur 0 -- -- 28
2019-08-17 14:00:00 40 16 Sur 26 Sur 0 -- -- 25
2019-08-17 13:00:00 38.5 10 Sur 22 Sur 0 -- -- 28
2019-08-17 12:00:00 42.1 15 Sur 23 Sur 0 -- -- 17
2019-08-17 11:00:00 37.8 3 Sur 10 Sudeste 0 -- -- 19
2019-08-17 10:00:00 34.4 2 Sudeste 11 Norte 0 -- -- 23
2019-08-17 09:00:00 30.3 4 Este 11 Sur 0 -- -- 24
2019-08-17 08:00:00 30.1 5 Norte 15 Nordeste 0 -- -- 26
2019-08-17 07:00:00 25.9 4 Norte 14 Sur 0 -- -- 41
2019-08-17 06:00:00 25.1 6 Sur 15 Sur 0 -- -- 55
2019-08-17 05:00:00 26.7 0 Calma 9 Norte 0 -- -- 40
2019-08-17 04:00:00 26.7 2 Sur 13 Sur 0 -- -- 53
2019-08-17 03:00:00 29 4 Norte 10 Norte 0 -- -- 32
2019-08-17 02:00:00 26.1 7 Norte 17 Sur 0 -- -- 53
2019-08-17 01:00:00 26.3 4 Norte 13 Sur 0 -- -- 58
2019-08-17 00:00:00 31 0 Calma 18 Norte 0 -- -- 38
2019-08-16 23:00:00 34.3 8 Nordeste 14 Norte 0 -- -- 28
2019-08-16 22:00:00 29.5 3 Nordeste 10 Norte 0 -- -- 42
2019-08-16 21:00:00 27.8 0 Calma 16 Sur 0 -- -- 51
2019-08-16 20:00:00 31.9 12 Sur 18 Sur 0 -- -- 42
2019-08-16 19:00:00 35.7 11 Sur 21 Sudoeste 0 -- -- 33
2019-08-16 18:00:00 38.3 8 Sudoeste 22 Sudoeste 0 -- -- 26
2019-08-16 17:00:00 35.8 15 Sur 25 Sur 0 -- -- 35
2019-08-16 16:00:00 35.1 18 Sur 29 Sur 0 -- -- 37
2019-08-16 15:00:00 35.3 17 Sur 28 Sur 0 -- -- 40
2019-08-16 14:00:00 34.6 15 Sur 28 Sur 0 -- -- 43
2019-08-16 13:00:00 33.2 10 Sudoeste 21 Sur 0 -- -- 47
2019-08-16 12:00:00 31.8 10 Sur 18 Sur 0 -- -- 48
2019-08-16 11:00:00 29.6 10 Sur 22 Sur 0 -- -- 51
2019-08-16 10:00:00 26.5 10 Sur 39 Sur 0 -- -- 52
2019-08-16 09:00:00 25.9 10 Sur 18 Sur 0 -- -- 46
2019-08-16 08:00:00 24.4 3 Norte 10 Norte 0 -- -- 41
2019-08-16 07:00:00 22.6 5 Norte 8 Norte 0 -- -- 55
2019-08-16 06:00:00 22.9 0 Calma 14 Sudoeste 0 -- -- 57
2019-08-16 05:00:00 23 3 Nordeste 8 Norte 0 -- -- 55
2019-08-16 04:00:00 22.5 0 Calma 8 Nordeste 0 -- -- 62
2019-08-16 03:00:00 22.9 2 Sur 9 Sur 0 -- -- 66
2019-08-16 02:00:00 23.4 7 Norte 8 Norte 0 -- -- 57
2019-08-16 01:00:00 22.2 0 Calma 8 Norte 0 -- -- 71
2019-08-16 00:00:00 21.9 4 Norte 14 Sur 0 -- -- 72
2019-08-15 23:00:00 22.6 0 Calma 6 Sur 0 -- -- 70
2019-08-15 22:00:00 23.7 5 Sur 15 Sur 0 -- -- 66
2019-08-15 21:00:00 25.8 8 Sudoeste 28 Norte 0 -- -- 59
2019-08-15 20:00:00 28.3 14 Norte 21 Norte 0 -- -- 51
2019-08-15 19:00:00 31.1 11 Sudoeste 19 Sur 0 -- -- 43
2019-08-15 18:00:00 32 13 Sur 24 Sur 0 -- -- 40
2019-08-15 17:00:00 32.8 19 Sur 28 Sur 0 -- -- 37
2019-08-15 16:00:00 33.7 17 Sur 25 Sur 0 -- -- 34
2019-08-15 15:00:00 33.8 18 Sur 26 Sur 0 -- -- 33
2019-08-15 14:00:00 33 18 Sur 26 Sur 0 -- -- 34
2019-08-15 13:00:00 32.3 18 Sur 24 Sur 0 -- -- 35
2019-08-15 12:00:00 31.2 13 Sur 18 Sur 0 -- -- 39
2019-08-15 11:00:00 28.7 9 Sur 14 Sur 0 -- -- 43
2019-08-15 10:00:00 25.8 5 Sudoeste 20 Norte 0 -- -- 45
2019-08-15 09:00:00 22.5 12 Norte 24 Norte 0 -- -- 53
2019-08-15 08:00:00 21.5 15 Norte 30 Norte 0 -- -- 59
2019-08-15 07:00:00 21.5 12 Norte 23 Norte 0 -- -- 60
2019-08-15 06:00:00 22 15 Norte 28 Noroeste 0 -- -- 62
2019-08-15 05:00:00 21.5 18 Norte 31 Norte 0 -- -- 64
2019-08-15 04:00:00 21.3 22 Norte 31 Norte 0 -- -- 66
2019-08-15 03:00:00 21.6 17 Norte 30 Norte 0 -- -- 62
2019-08-15 02:00:00 22.2 13 Norte 23 Norte 0 -- -- 63
2019-08-15 01:00:00 21.7 18 Norte 31 Norte 0 -- -- 68
2019-08-15 00:00:00 22.1 20 Norte 34 Norte 0 -- -- 67
2019-08-14 23:00:00 22.8 22 Norte 32 Norte 0 -- -- 65
2019-08-14 22:00:00 23.9 16 Norte 26 Norte 0 -- -- 63
2019-08-14 21:00:00 23.8 21 Norte 31 Nordeste 0 -- -- 64
2019-08-14 20:00:00 25.1 21 Nordeste 29 Norte 0 -- -- 61
2019-08-14 19:00:00 26.9 19 Nordeste 26 Nordeste 0 -- -- 55
2019-08-14 18:00:00 31.6 18 Sur 27 Sur 0 -- -- 34
2019-08-14 17:00:00 32.6 20 Sur 32 Sur 0 -- -- 33
2019-08-14 16:00:00 32.5 23 Sur 31 Sur 0 -- -- 32
2019-08-14 15:00:00 30.2 9 Nordeste 24 Sur 0 -- -- 39
2019-08-14 14:00:00 31.5 20 Sur 30 Sur 0 -- -- 33
2019-08-14 13:00:00 29.1 13 Sur 22 Sur 0 -- -- 40
2019-08-14 12:00:00 26.2 12 Nordeste 25 Nordeste 0 -- -- 49
2019-08-14 11:00:00 24.5 16 Nordeste 31 Nordeste 0 -- -- 50
2019-08-14 10:00:00 22.4 17 Nordeste 33 Nordeste 0 -- -- 55
2019-08-14 09:00:00 20.3 13 Norte 27 Nordeste 0 -- -- 62
2019-08-14 08:00:00 20 16 Norte 29 Norte 0 -- -- 63
2019-08-14 07:00:00 20 17 Norte 28 Nordeste 0 -- -- 63
2019-08-14 06:00:00 20 14 Norte 22 Norte 0 -- -- 63
2019-08-14 05:00:00 20 12 Norte 30 Nordeste 0 -- -- 64
2019-08-14 04:00:00 20.2 19 Nordeste 30 Nordeste 0 -- -- 63
2019-08-14 03:00:00 20.9 16 Nordeste 33 Nordeste 0 -- -- 61
2019-08-14 02:00:00 21 22 Nordeste 43 Nordeste 0 -- -- 63
2019-08-14 01:00:00 20.7 25 Nordeste 39 Nordeste 0 -- -- 64
2019-08-14 00:00:00 21 22 Nordeste 36 Nordeste 0 -- -- 63
2019-08-13 23:00:00 21.4 26 Nordeste 44 Este 0 -- -- 61
2019-08-13 22:00:00 22.3 27 Nordeste 47 Nordeste 0 -- -- 52
2019-08-13 21:00:00 22.7 18 Nordeste 40 Nordeste 0 -- -- 53
2019-08-13 20:00:00 23.5 22 Nordeste 47 Nordeste 0 -- -- 53
2019-08-13 19:00:00 25.3 24 Nordeste 49 Norte 0 -- -- 50
2019-08-13 18:00:00 26 26 Norte 41 Norte 0 -- -- 47
2019-08-13 17:00:00 26.3 24 Nordeste 41 Nordeste 0 -- -- 50
2019-08-13 16:00:00 26.2 27 Nordeste 43 Este 0 -- -- 51
2019-08-13 15:00:00 26.5 21 Nordeste 38 Nordeste 0 -- -- 51
2019-08-13 14:00:00 27.6 11 Nordeste 28 Nordeste 0 -- -- 49
2019-08-13 13:00:00 26.3 22 Nordeste 42 Nordeste 0 -- -- 50
2019-08-13 12:00:00 25.1 26 Nordeste 43 Nordeste 0 -- -- 51
2019-08-13 11:00:00 24.5 24 Este 40 Este 0 -- -- 50
2019-08-13 10:00:00 23.2 22 Nordeste 48 Nordeste 0 -- -- 51
2019-08-13 09:00:00 22 24 Nordeste 46 Este 0 -- -- 50
2019-08-13 08:00:00 21.5 23 Nordeste 42 Nordeste 0 -- -- 51
2019-08-13 07:00:00 21.3 24 Norte 44 Norte 0 -- -- 54
2019-08-13 06:00:00 21.7 25 Norte 50 Norte 0 -- -- 48
2019-08-13 05:00:00 21.4 23 Nordeste 44 Nordeste 0 -- -- 58
2019-08-13 04:00:00 21.7 24 Nordeste 39 Nordeste 0 -- -- 57
2019-08-13 03:00:00 22 21 Norte 41 Nordeste 0 -- -- 56
2019-08-13 02:00:00 21.5 30 Norte 45 Norte 0 -- -- 59
2019-08-13 01:00:00 22.1 26 Nordeste 40 Nordeste 0 -- -- 54
2019-08-13 00:00:00 21.7 26 Norte 41 Norte 0 -- -- 57
2019-08-12 23:00:00 22.6 29 Norte 42 Norte 0 -- -- 53
2019-08-12 22:00:00 23.1 22 Norte 36 Nordeste 0 -- -- 50
2019-08-12 21:00:00 23.3 26 Norte 44 Norte 0 -- -- 52
2019-08-12 20:00:00 24.2 20 Norte 34 Nordeste 0 -- -- 48
2019-08-12 19:00:00 25.3 21 Nordeste 36 Nordeste 0 -- -- 53
2019-08-12 18:00:00 26.9 21 Norte 35 Nordeste 0 -- -- 49
2019-08-12 17:00:00 27 24 Nordeste 37 Nordeste 0 -- -- 50
2019-08-12 16:00:00 27.1 22 Nordeste 33 Nordeste 0 -- -- 48
2019-08-12 15:00:00 26.8 25 Nordeste 39 Nordeste 0 -- -- 51
2019-08-12 14:00:00 26.2 24 Nordeste 37 Nordeste 0 -- -- 54
2019-08-12 13:00:00 26.4 25 Nordeste 42 Nordeste 0 -- -- 53
2019-08-12 12:00:00 25.9 22 Nordeste 40 Nordeste 0 -- -- 55
2019-08-12 11:00:00 25.4 21 Nordeste 46 Este 0 -- -- 53
2019-08-12 10:00:00 24.1 25 Este 48 Nordeste 0 -- -- 55
2019-08-12 09:00:00 23.3 23 Nordeste 47 Este 0 -- -- 52
2019-08-12 08:00:00 23.4 20 Nordeste 42 Nordeste 0 -- -- 51
2019-08-12 07:00:00 22.8 27 Nordeste 48 Nordeste 0 -- -- 55
2019-08-12 06:00:00 22.5 27 Nordeste 48 Este 0 -- -- 57
2019-08-12 05:00:00 22.9 27 Nordeste 45 Este 0 -- -- 52
2019-08-12 04:00:00 23.2 20 Nordeste 41 Este 0 -- -- 48
2019-08-12 03:00:00 22.3 26 Nordeste 37 Nordeste 0 -- -- 54
2019-08-12 02:00:00 22.6 21 Nordeste 37 Nordeste 0 -- -- 49
2019-08-12 01:00:00 21.5 13 Este 32 Norte 0 -- -- 62
2019-08-12 00:00:00 22.1 6 Sur 27 Nordeste 0 -- -- 67
2019-08-11 23:00:00 22.6 17 Nordeste 39 Este 0 -- -- 54
2019-08-11 22:00:00 23.7 25 Nordeste 42 Nordeste 0 -- -- 51
2019-08-11 21:00:00 23 24 Nordeste 36 Nordeste 0 -- -- 59
2019-08-11 20:00:00 25 11 Este 31 Nordeste 0 -- -- 65
2019-08-11 19:00:00 26.2 22 Nordeste 37 Nordeste 0 -- -- 52
2019-08-11 18:00:00 27 22 Nordeste 37 Nordeste 0 -- -- 53
2019-08-11 17:00:00 27.7 18 Nordeste 33 Nordeste 0 -- -- 52
2019-08-11 16:00:00 27.9 19 Nordeste 38 Nordeste 0 -- -- 53
2019-08-11 15:00:00 27.9 21 Nordeste 46 Nordeste 0 -- -- 54
2019-08-11 14:00:00 27.5 23 Nordeste 38 Norte 0 -- -- 55
2019-08-11 13:00:00 27.9 18 Nordeste 37 Nordeste 0 -- -- 52
2019-08-11 12:00:00 26.9 23 Nordeste 39 Este 0 -- -- 55
2019-08-11 11:00:00 26.2 11 Nordeste 30 Este 0 -- -- 57
2019-08-11 10:00:00 24.5 18 Nordeste 31 Nordeste 0 -- -- 64
2019-08-11 09:00:00 23.2 18 Nordeste 36 Nordeste 0 -- -- 68
2019-08-11 08:00:00 23.2 16 Nordeste 36 Nordeste 0 -- -- 67
2019-08-11 07:00:00 22.4 19 Nordeste 32 Nordeste 0 -- -- 74
2019-08-11 06:00:00 22.8 24 Nordeste 38 Nordeste 0 -- -- 72
2019-08-11 05:00:00 22.9 18 Nordeste 36 Nordeste 0 -- -- 71
2019-08-11 04:00:00 21.9 4 Sudeste 14 Norte 0 -- -- 74
2019-08-11 03:00:00 23.6 9 Sudeste 44 Nordeste 0 -- -- 67
2019-08-11 02:00:00 24.9 14 Nordeste 37 Norte 0 -- -- 56
2019-08-11 01:00:00 24.6 22 Nordeste 47 Nordeste 0 -- -- 57
2019-08-11 00:00:00 24.8 36 Nordeste 53 Nordeste 0 -- -- 55
2019-08-10 23:00:00 24.8 9 Norte 31 Nordeste 0 -- -- 53
2019-08-10 22:00:00 25 18 Nordeste 32 Norte 0 -- -- 60
2019-08-10 21:00:00 25 21 Norte 32 Nordeste 0 -- -- 62
2019-08-10 20:00:00 27.4 6 Sur 21 Sur 0 -- -- 57
2019-08-10 19:00:00 29.8 17 Sur 29 Sur 0 -- -- 50
2019-08-10 18:00:00 30.8 22 Sur 29 Sur 0 -- -- 47
2019-08-10 17:00:00 32.1 17 Sur 32 Sur 0 -- -- 43
2019-08-10 16:00:00 32 19 Sur 30 Sur 0 -- -- 43
2019-08-10 15:00:00 31.3 22 Sur 32 Sur 0 -- -- 46
2019-08-10 14:00:00 31 18 Sur 31 Sur 0 -- -- 47
2019-08-10 13:00:00 30.7 20 Sur 27 Sur 0 -- -- 49
2019-08-10 12:00:00 28.4 17 Sur 22 Sur 0 -- -- 57
2019-08-10 11:00:00 26.5 14 Sur 20 Sur 0 -- -- 67
2019-08-10 10:00:00 24 10 Sur 14 Sur 0 -- -- 71
2019-08-10 09:00:00 21.1 0 Calma 3 Sudoeste 0 -- -- 75
2019-08-10 08:00:00 20.9 0 Calma 6 Norte 0 -- -- 73
2019-08-10 07:00:00 20.8 3 Norte 11 Sur 0 -- -- 84
2019-08-10 06:00:00 20.4 0 Calma 4 Sur 0 -- -- 87
2019-08-10 05:00:00 20.9 0 Calma 9 Sudoeste 0 -- -- 85
2019-08-10 04:00:00 21.4 2 Este 9 Sur 0 -- -- 81
2019-08-10 03:00:00 22 0 Calma 7 Nordeste 0 -- -- 77
2019-08-10 02:00:00 21.2 5 Norte 6 Norte 0 -- -- 86
2019-08-10 01:00:00 21.5 0 Calma 6 Sur 0 -- -- 84
2019-08-10 00:00:00 22.1 0 Calma 7 Sur 0 -- -- 82
2019-08-09 23:00:00 22.2 2 Norte 5 Sur 0 -- -- 82
2019-08-09 22:00:00 22.5 5 Sur 9 Sudoeste 0 -- -- 79
2019-08-09 21:00:00 23.1 5 Sudoeste 15 Sur 0 -- -- 74
2019-08-09 20:00:00 25.2 8 Sur 23 Sur 0 -- -- 68
2019-08-09 19:00:00 27.4 18 Sur 24 Sur 0 -- -- 61
2019-08-09 18:00:00 29 22 Sur 31 Sur 0 -- -- 56
2019-08-09 17:00:00 32.4 19 Sur 32 Sur 0 -- -- 43
2019-08-09 16:00:00 32.9 21 Sur 36 Sur 0 -- -- 40
2019-08-09 15:00:00 31.7 23 Sur 34 Sur 0 -- -- 47
2019-08-09 14:00:00 30.5 17 Sur 24 Sur 0 -- -- 54
2019-08-09 13:00:00 28.7 17 Sur 26 Sur 0 -- -- 61
2019-08-09 12:00:00 26.6 20 Sur 28 Sur 0 -- -- 68
2019-08-09 11:00:00 25.8 14 Sur 19 Sur 0 -- -- 71
2019-08-09 10:00:00 23.3 12 Sur 16 Sur 0 -- -- 84
2019-08-09 09:00:00 20.8 0 Calma 14 Sur 0 -- -- 88
2019-08-09 08:00:00 19.9 0 Calma 4 Noroeste 0 -- -- 90
2019-08-09 07:00:00 19.8 4 Sur 8 Sur 0 -- -- 90
2019-08-09 06:00:00 20.1 3 Norte 10 Sur 0 -- -- 90
2019-08-09 05:00:00 19.7 4 Norte 6 Norte 0 -- -- 87
2019-08-09 04:00:00 20.4 0 Calma 9 Sur 0 -- -- 89
2019-08-09 03:00:00 20.5 0 Calma 8 Sur 0 -- -- 88
2019-08-09 02:00:00 20.8 3 Norte 6 Sur 0 -- -- 87
2019-08-09 01:00:00 21.1 0 Calma 8 Sur 0 -- -- 85
2019-08-09 00:00:00 21.5 0 Calma 5 Norte 0 -- -- 82
2019-08-08 23:00:00 21.8 0 Calma 13 Sudoeste 0 -- -- 80
2019-08-08 22:00:00 22.7 8 Sur 10 Sur 0 -- -- 76
2019-08-08 21:00:00 23.8 7 Sudoeste 14 Sudoeste 0 -- -- 73
2019-08-08 20:00:00 25.7 11 Sur 18 Sur 0 -- -- 67
2019-08-08 19:00:00 27.8 16 Sur 24 Sur 0 -- -- 61
2019-08-08 18:00:00 29 16 Sur 27 Sur 0 -- -- 58
2019-08-08 17:00:00 30.3 13 Sur 32 Sur 0 -- -- 55
2019-08-08 16:00:00 29.7 21 Sur 33 Sur 0 -- -- 54
2019-08-08 15:00:00 29.3 23 Sur 33 Sur 0 -- -- 56
2019-08-08 14:00:00 30.1 19 Sur 31 Sur 0 -- -- 52
2019-08-08 13:00:00 30.2 22 Sur 29 Sur 0 -- -- 52
2019-08-08 12:00:00 27.5 16 Sur 26 Sur 0 -- -- 63
2019-08-08 11:00:00 25.2 3 Nordeste 18 Sur 0 -- -- 67
2019-08-08 10:00:00 22.6 8 Sur 14 Sur 0 -- -- 80
2019-08-08 09:00:00 19.5 6 Norte 9 Norte 0 -- -- 83
2019-08-08 08:00:00 18.8 0 Calma 5 Norte 0 -- -- 87
2019-08-08 07:00:00 19 2 Este 5 Norte 0 -- -- 87
2019-08-08 06:00:00 19.5 0 Calma 10 Sudeste 0 -- -- 87
2019-08-08 05:00:00 19.9 6 Sur 10 Sur 0 -- -- 83
2019-08-08 04:00:00 20.3 2 Nordeste 5 Sur 0 -- -- 77
2019-08-08 03:00:00 20.7 0 Calma 8 Norte 0 -- -- 80
2019-08-08 02:00:00 20.2 6 Norte 8 Norte 0 -- -- 84
2019-08-08 01:00:00 20.6 0 Calma 9 Sur 0 -- -- 83
2019-08-08 00:00:00 21.1 6 Sur 9 Sur 0 -- -- 81
2019-08-07 23:00:00 21.6 2 Oeste 13 Sur 0 -- -- 79
2019-08-07 22:00:00 22.4 2 Sudoeste 10 Sur 0 -- -- 75
2019-08-07 21:00:00 23.5 3 Sudoeste 14 Sur 0 -- -- 70
2019-08-07 20:00:00 26.1 9 Sur 19 Sur 0 -- -- 62
2019-08-07 19:00:00 28.1 14 Sur 31 Sur 0 -- -- 55
2019-08-07 18:00:00 28.9 23 Sur 30 Sur 0 -- -- 53
2019-08-07 17:00:00 29.8 21 Sur 33 Sur 0 -- -- 50
2019-08-07 16:00:00 29.9 23 Sur 32 Sur 0 -- -- 51
2019-08-07 15:00:00 30.2 23 Sur 31 Sur 0 -- -- 50
2019-08-07 14:00:00 29.1 19 Sur 30 Sur 0 -- -- 50
2019-08-07 13:00:00 28.3 19 Sur 27 Sur 0 -- -- 55
2019-08-07 12:00:00 27.4 16 Sur 21 Sur 0 -- -- 59
2019-08-07 11:00:00 26 12 Sur 18 Sur 0 -- -- 61
2019-08-07 10:00:00 22.1 3 Sur 6 Sur 0 -- -- 70
2019-08-07 09:00:00 19.4 0 Calma 10 Sudoeste 0 -- -- 78
2019-08-07 08:00:00 18.9 3 Sur 8 Sur 0 -- -- 75
2019-08-07 07:00:00 19.4 3 Sudeste 15 Noroeste 0 -- -- 70
2019-08-07 06:00:00 20.2 5 Este 27 Nordeste 0 -- -- 68
2019-08-07 05:00:00 20.6 15 Nordeste 26 Norte 0 -- -- 66
2019-08-07 04:00:00 20.5 17 Nordeste 35 Nordeste 0 -- -- 69
2019-08-07 03:00:00 20.5 20 Nordeste 36 Nordeste 0 -- -- 68
2019-08-07 02:00:00 21 19 Nordeste 37 Este 0 -- -- 65
2019-08-07 01:00:00 21.6 23 Nordeste 39 Nordeste 0 -- -- 60
2019-08-07 00:00:00 21.8 20 Nordeste 37 Nordeste 0 -- -- 57
2019-08-06 23:00:00 21.9 20 Nordeste 34 Nordeste 0 -- -- 61
2019-08-06 22:00:00 21.9 17 Nordeste 39 Este 0 -- -- 64
2019-08-06 21:00:00 22.6 19 Nordeste 49 Nordeste 0 -- -- 62
2019-08-06 20:00:00 24 22 Nordeste 41 Este 0 -- -- 57
2019-08-06 19:00:00 26.7 17 Nordeste 42 Noroeste 0 -- -- 50
2019-08-06 18:00:00 25.8 27 Norte 47 Norte 0 -- -- 54
2019-08-06 17:00:00 25.3 28 Norte 48 Norte 0 -- -- 59
2019-08-06 16:00:00 25.8 31 Norte 47 Norte 0 -- -- 58
2019-08-06 15:00:00 25.8 31 Norte 43 Norte 0 -- -- 57
2019-08-06 14:00:00 26.5 24 Norte 34 Norte 0 -- -- 53
2019-08-06 13:00:00 27.5 9 Oeste 29 Sur 0 -- -- 51
2019-08-06 12:00:00 27.2 21 Sur 28 Sur 0 -- -- 58
2019-08-06 11:00:00 25.5 10 Sur 28 Norte 0 -- -- 58
2019-08-06 10:00:00 23 17 Nordeste 36 Nordeste 0 -- -- 58
2019-08-06 09:00:00 20.9 13 Nordeste 28 Nordeste 0 -- -- 64
2019-08-06 08:00:00 21 17 Nordeste 37 Nordeste 0 -- -- 63
2019-08-06 07:00:00 21 18 Nordeste 35 Nordeste 0 -- -- 64
2019-08-06 06:00:00 21.4 20 Este 38 Nordeste 0 -- -- 62
2019-08-06 05:00:00 21.4 14 Norte 31 Nordeste 0 -- -- 63
2019-08-06 04:00:00 21.5 16 Nordeste 34 Norte 0 -- -- 62
2019-08-06 03:00:00 22.3 21 Norte 44 Norte 0 -- -- 57
2019-08-06 02:00:00 21.9 18 Norte 38 Nordeste 0 -- -- 60
2019-08-06 01:00:00 22.1 15 Nordeste 37 Nordeste 0 -- -- 61
2019-08-06 00:00:00 22.1 16 Nordeste 40 Norte 0 -- -- 62
2019-08-05 23:00:00 22.8 19 Norte 36 Norte 0 -- -- 57
2019-08-05 22:00:00 23 21 Este 45 Nordeste 0 -- -- 60
2019-08-05 21:00:00 22.7 23 Este 42 Este 0 -- -- 65
2019-08-05 20:00:00 23.7 21 Nordeste 37 Este 0 -- -- 64
2019-08-05 19:00:00 25 22 Nordeste 37 Nordeste 0 -- -- 61
2019-08-05 18:00:00 25.8 24 Nordeste 36 Norte 0 -- -- 59
2019-08-05 17:00:00 27.1 18 Nordeste 28 Nordeste 0 -- -- 54
2019-08-05 16:00:00 30.5 16 Sur 30 Sur 0 -- -- 45
2019-08-05 15:00:00 29.5 22 Sur 33 Sur 0 -- -- 49
2019-08-05 14:00:00 29.4 21 Sur 35 Sur 0 -- -- 47
2019-08-05 13:00:00 26.3 14 Nordeste 28 Nordeste 0 -- -- 53
2019-08-05 12:00:00 27.1 17 Sur 28 Sur 0 -- -- 51
2019-08-05 11:00:00 25.9 15 Sur 19 Sur 0 -- -- 56
2019-08-05 10:00:00 23.1 11 Sur 36 Este 0 -- -- 61
2019-08-05 09:00:00 21.2 15 Nordeste 31 Nordeste 0 -- -- 63
2019-08-05 08:00:00 18.6 4 Sur 11 Sur 0 -- -- 75
2019-08-05 07:00:00 19 5 Sur 9 Sudeste 0 -- -- 75
2019-08-05 06:00:00 20.3 5 Sur 35 Nordeste 0 -- -- 72
2019-08-05 05:00:00 21 18 Nordeste 36 Nordeste 0 -- -- 63
2019-08-05 04:00:00 21.3 13 Norte 24 Noroeste 0 -- -- 59
2019-08-05 03:00:00 20.7 15 Norte 24 Norte 0 -- -- 62
2019-08-05 02:00:00 21.1 10 Nordeste 28 Nordeste 0 -- -- 63
2019-08-05 01:00:00 21 14 Nordeste 28 Nordeste 0 -- -- 66
2019-08-05 00:00:00 20.9 12 Norte 24 Norte 0 -- -- 66
2019-08-04 23:00:00 21.4 10 Norte 23 Norte 0 -- -- 61
2019-08-04 22:00:00 21.9 17 Nordeste 32 Nordeste 0 -- -- 59
2019-08-04 21:00:00 22.3 15 Nordeste 31 Norte 0 -- -- 60
2019-08-04 20:00:00 23.7 9 Noroeste 37 Norte 0 -- -- 62
2019-08-04 19:00:00 24.3 24 Norte 36 Norte 0 -- -- 55
2019-08-04 18:00:00 25.5 24 Norte 42 Norte 0 -- -- 51
2019-08-04 17:00:00 26.6 23 Norte 43 Norte 0 -- -- 47
2019-08-04 16:00:00 27.7 12 Noroeste 31 Sur 0 -- -- 47
2019-08-04 15:00:00 29.1 25 Sur 33 Sur 0 -- -- 42
2019-08-04 14:00:00 28.8 22 Sur 30 Sur 0 -- -- 43
2019-08-04 13:00:00 27.5 19 Sur 30 Norte 0 -- -- 54
2019-08-04 12:00:00 25.3 10 Norte 22 Norte 0 -- -- 50
2019-08-04 11:00:00 23.5 14 Nordeste 30 Nordeste 0 -- -- 55
2019-08-04 10:00:00 21.6 14 Nordeste 36 Nordeste 0 -- -- 60
2019-08-04 09:00:00 20.1 22 Nordeste 42 Norte 0 -- -- 61
2019-08-04 08:00:00 19.5 21 Nordeste 36 Nordeste 0 -- -- 65
2019-08-04 07:00:00 19.5 9 Nordeste 28 Nordeste 0 -- -- 64
2019-08-04 06:00:00 19.4 14 Nordeste 30 Nordeste 0 -- -- 66
2019-08-04 05:00:00 19.6 5 Este 34 Nordeste 0 -- -- 67
2019-08-04 04:00:00 19.8 22 Nordeste 35 Nordeste 0 -- -- 66
2019-08-04 03:00:00 19.5 13 Nordeste 27 Nordeste 0 -- -- 69
2019-08-04 02:00:00 19.5 14 Nordeste 26 Nordeste 0 -- -- 68
2019-08-04 01:00:00 20 18 Nordeste 28 Nordeste 0 -- -- 66
2019-08-04 00:00:00 20.2 17 Nordeste 31 Nordeste 0 -- -- 67
2019-08-03 23:00:00 21.1 6 Sur 32 Nordeste 0 -- -- 73
2019-08-03 22:00:00 21.6 15 Nordeste 29 Nordeste 0 -- -- 59
2019-08-03 21:00:00 21.7 15 Nordeste 40 Este 0 -- -- 63
2019-08-03 20:00:00 23.5 18 Nordeste 40 Nordeste 0 -- -- 59
2019-08-03 19:00:00 24.8 21 Nordeste 44 Nordeste 0 -- -- 54
2019-08-03 18:00:00 27.1 15 Norte 27 Nordeste 0 -- -- 48
2019-08-03 17:00:00 26.7 14 Oeste 33 Sur 0 -- -- 56
2019-08-03 16:00:00 28.5 25 Sur 38 Sur 0 -- -- 51
2019-08-03 15:00:00 27.3 11 Sur 31 Nordeste 0 -- -- 54
2019-08-03 14:00:00 26 19 Nordeste 33 Nordeste 0 -- -- 55
2019-08-03 13:00:00 25 18 Nordeste 32 Nordeste 0 -- -- 57
2019-08-03 12:00:00 24.8 9 Noroeste 26 Sur 0 -- -- 59
2019-08-03 11:00:00 25.1 16 Sur 22 Sur 0 -- -- 60
2019-08-03 10:00:00 22.4 9 Nordeste 31 Nordeste 0 -- -- 58
2019-08-03 09:00:00 20.1 13 Nordeste 28 Nordeste 0 -- -- 66
2019-08-03 08:00:00 19.1 17 Nordeste 30 Nordeste 0 -- -- 72
2019-08-03 07:00:00 18.7 12 Nordeste 18 Norte 0 -- -- 73
2019-08-03 06:00:00 19 5 Sudeste 25 Norte 0 -- -- 71
2019-08-03 05:00:00 19.6 16 Norte 29 Norte 0 -- -- 70
2019-08-03 04:00:00 19.4 17 Nordeste 27 Norte 0 -- -- 72
2019-08-03 03:00:00 19.3 0 Calma 8 Norte 0 -- -- 76
2019-08-03 02:00:00 19.8 3 Nordeste 19 Norte 0 -- -- 75
2019-08-03 01:00:00 20.5 13 Nordeste 32 Nordeste 0 -- -- 66
2019-08-03 00:00:00 20.1 19 Nordeste 29 Nordeste 0 -- -- 71
2019-08-02 23:00:00 21 6 Este 29 Nordeste 0 -- -- 73
2019-08-02 22:00:00 21.3 22 Nordeste 38 Nordeste 0 -- -- 68
2019-08-02 21:00:00 21.8 27 Nordeste 40 Nordeste 0 -- -- 65
2019-08-02 20:00:00 23.3 19 Nordeste 28 Nordeste 0 -- -- 61
2019-08-02 19:00:00 26.9 18 Sudoeste 32 Sur 0 -- -- 54
2019-08-02 18:00:00 28.5 21 Sur 30 Sur 0 -- -- 49
2019-08-02 17:00:00 26.2 21 Nordeste 33 Nordeste 0 -- -- 55
2019-08-02 16:00:00 27.1 18 Nordeste 32 Norte 0 -- -- 51
2019-08-02 15:00:00 29.5 14 Sur 30 Sur 0 -- -- 49
2019-08-02 14:00:00 27.9 20 Sur 33 Sur 0 -- -- 52
2019-08-02 13:00:00 27.6 22 Sur 31 Sur 0 -- -- 50
2019-08-02 12:00:00 26.3 22 Sur 29 Sur 0 -- -- 56
2019-08-02 11:00:00 23.5 12 Nordeste 26 Nordeste 0 -- -- 57
2019-08-02 10:00:00 21 12 Nordeste 19 Nordeste 0 -- -- 67
2019-08-02 09:00:00 18.2 2 Sudeste 6 Este 0 -- -- 76
2019-08-02 08:00:00 18 0 Calma 10 Sur 0 -- -- 74
2019-08-02 07:00:00 18.9 7 Este 24 Nordeste 0 -- -- 70
2019-08-02 06:00:00 18.6 17 Nordeste 27 Nordeste 0 -- -- 73
2019-08-02 05:00:00 18.3 9 Norte 16 Nordeste 0 -- -- 74
2019-08-02 04:00:00 18.7 2 Nordeste 16 Nordeste 0 -- -- 74
2019-08-02 03:00:00 19.2 5 Nordeste 11 Norte 0 -- -- 73
2019-08-02 02:00:00 19.8 8 Sur 27 Norte 0 -- -- 66
2019-08-02 01:00:00 19.9 18 Nordeste 31 Nordeste 0 -- -- 66
2019-08-02 00:00:00 19.8 14 Nordeste 30 Nordeste 0 -- -- 69
2019-08-01 23:00:00 20.8 13 Nordeste 34 Nordeste 0 -- -- 63
2019-08-01 22:00:00 20.9 20 Nordeste 36 Nordeste 0 -- -- 64
2019-08-01 21:00:00 21.7 18 Nordeste 39 Nordeste 0 -- -- 60
2019-08-01 20:00:00 23.2 19 Nordeste 32 Nordeste 0 -- -- 58
2019-08-01 19:00:00 26.9 12 Sudoeste 24 Sur 0 -- -- 54
2019-08-01 18:00:00 26.7 13 Oeste 28 Noroeste 0 -- -- 51
2019-08-01 17:00:00 29.5 17 Sur 30 Sur 0 -- -- 45
2019-08-01 16:00:00 26 15 Norte 35 Norte 0 -- -- 52
2019-08-01 15:00:00 25.2 24 Norte 36 Norte 0 -- -- 52
2019-08-01 14:00:00 28.3 20 Sur 30 Sur 0 -- -- 51
2019-08-01 13:00:00 26.8 21 Sur 31 Sur 0 -- -- 55
2019-08-01 12:00:00 25.7 23 Sur 33 Sur 0 -- -- 57
2019-08-01 11:00:00 23.9 7 Este 16 Nordeste 0 -- -- 52
2019-08-01 10:00:00 21.6 6 Este 16 Nordeste 0 -- -- 58
2019-08-01 09:00:00 18.2 8 Nordeste 13 Nordeste 0 -- -- 73
2019-08-01 08:00:00 17.5 2 Nordeste 7 Norte 0 -- -- 70
2019-08-01 07:00:00 18.1 3 Norte 17 Nordeste 0 -- -- 68
2019-08-01 06:00:00 19.2 12 Nordeste 29 Este 0 -- -- 64
2019-08-01 05:00:00 19.3 14 Nordeste 30 Nordeste 0 -- -- 63
2019-08-01 04:00:00 19.4 18 Nordeste 33 Nordeste 0 -- -- 63
2019-08-01 03:00:00 19.5 19 Nordeste 38 Nordeste 0 -- -- 62
2019-08-01 02:00:00 19.9 18 Nordeste 36 Nordeste 0 -- -- 59
2019-08-01 01:00:00 19.8 20 Nordeste 34 Nordeste 0 -- -- 59
2019-08-01 00:00:00 20.4 19 Nordeste 36 Nordeste 0 -- -- 57
2019-07-31 23:00:00 20.7 19 Norte 40 Nordeste 0 -- -- 55
2019-07-31 22:00:00 20.4 20 Norte 36 Nordeste 0 -- -- 60
2019-07-31 21:00:00 20.9 10 Norte 38 Norte 0 -- -- 61
2019-07-31 20:00:00 21.4 25 Norte 42 Norte 0 -- -- 61
2019-07-31 19:00:00 23 25 Norte 39 Norte 0 -- -- 57
2019-07-31 18:00:00 23.3 26 Norte 39 Norte 0 -- -- 54
2019-07-31 17:00:00 23.7 23 Norte 40 Norte 0 -- -- 53
2019-07-31 16:00:00 24 21 Norte 40 Norte 0 -- -- 51
2019-07-31 15:00:00 23.6 27 Norte 41 Norte 0 -- -- 54
2019-07-31 14:00:00 23.4 24 Norte 43 Noroeste 0 -- -- 52
2019-07-31 13:00:00 23.3 24 Norte 39 Noroeste 0 -- -- 52
2019-07-31 12:00:00 23.2 21 Norte 36 Norte 0 -- -- 50
2019-07-31 11:00:00 22.4 18 Norte 30 Norte 0 -- -- 53
2019-07-31 10:00:00 21.4 17 Norte 39 Norte 0 -- -- 54
2019-07-31 09:00:00 20.1 22 Norte 40 Norte 0 -- -- 58
2019-07-31 08:00:00 20 19 Norte 40 Norte 0 -- -- 57
2019-07-31 07:00:00 19.4 9 Norte 39 Norte 0 -- -- 57
2019-07-31 06:00:00 19.4 25 Norte 49 Norte 0 -- -- 61
2019-07-31 05:00:00 19.7 26 Norte 56 Norte 0 -- -- 60
2019-07-31 04:00:00 20.2 34 Norte 67 Norte 0 -- -- 59
2019-07-31 03:00:00 20.3 42 Norte 63 Norte 0 -- -- 60
2019-07-31 02:00:00 20 36 Norte 54 Norte 0 -- -- 62
2019-07-31 01:00:00 20.4 39 Norte 66 Norte 0 -- -- 58
2019-07-31 00:00:00 20.5 39 Norte 63 Norte 0 -- -- 59
2019-07-30 23:00:00 20.7 36 Norte 55 Norte 0 -- -- 57
2019-07-30 22:00:00 21.4 28 Norte 54 Norte 0 -- -- 58
2019-07-30 21:00:00 21.6 32 Norte 59 Norte 0 -- -- 56
2019-07-30 20:00:00 22.3 35 Norte 53 Norte 0 -- -- 58
2019-07-30 19:00:00 23.8 26 Norte 41 Norte 0 -- -- 54
2019-07-30 18:00:00 24.8 24 Norte 48 Norte 0 -- -- 53
2019-07-30 17:00:00 25.2 22 Norte 59 Norte 0 -- -- 52
2019-07-30 16:00:00 25.1 31 Norte 57 Norte 0 -- -- 54
2019-07-30 15:00:00 23.5 39 Norte 58 Norte 0 -- -- 59
2019-07-30 14:00:00 24.3 27 Norte 60 Norte 0 -- -- 58
2019-07-30 13:00:00 23.2 32 Norte 50 Norte 0 -- -- 62
2019-07-30 12:00:00 22.3 40 Norte 56 Norte 0 -- -- 68
2019-07-30 11:00:00 22.4 40 Norte 55 Norte 0 -- -- 67
2019-07-30 10:00:00 22.3 29 Norte 60 Norte 0 -- -- 61
2019-07-30 09:00:00 21.6 33 Norte 51 Noroeste 0 -- -- 62
2019-07-30 08:00:00 21.5 29 Norte 58 Norte 0 -- -- 67
2019-07-30 07:00:00 21.7 28 Norte 49 Norte 0 -- -- 64
2019-07-30 06:00:00 21.9 35 Norte 54 Norte 0 -- -- 60
2019-07-30 05:00:00 21.8 28 Norte 46 Norte 0 -- -- 62
2019-07-30 04:00:00 21.8 19 Norte 41 Noroeste 0 -- -- 63
2019-07-30 03:00:00 22.1 20 Norte 46 Norte 0 -- -- 62
2019-07-30 02:00:00 22.2 13 Norte 40 Noroeste 0 -- -- 61
2019-07-30 01:00:00 22.6 25 Norte 55 Norte 0 -- -- 60
2019-07-30 00:00:00 22.2 27 Norte 45 Noroeste 0 -- -- 66
2019-07-29 23:00:00 22.8 21 Norte 46 Noroeste 0 -- -- 55
2019-07-29 22:00:00 22.4 18 Nordeste 46 Norte 0 -- -- 53
2019-07-29 21:00:00 22.3 23 Norte 49 Norte 0 -- -- 56
2019-07-29 20:00:00 23.3 30 Norte 45 Norte 0 -- -- 54
2019-07-29 19:00:00 24.7 21 Norte 45 Norte 0 -- -- 49
2019-07-29 18:00:00 24.9 27 Norte 50 Norte 0 -- -- 53
2019-07-29 17:00:00 25.3 28 Norte 55 Norte 0 -- -- 51
2019-07-29 16:00:00 25.4 27 Norte 45 Norte 0 -- -- 52
2019-07-29 15:00:00 26.3 18 Sudoeste 38 Norte 0 -- -- 54
2019-07-29 14:00:00 26 19 Norte 36 Norte 0 -- -- 50
2019-07-29 13:00:00 25.5 28 Norte 46 Norte 0 -- -- 49
2019-07-29 12:00:00 24.2 19 Noroeste 30 Noroeste 0 -- -- 52
2019-07-29 11:00:00 23.2 14 Noroeste 29 Noroeste 0 -- -- 58
2019-07-29 10:00:00 22.8 12 Nordeste 42 Este 0 -- -- 55
2019-07-29 09:00:00 20.6 20 Nordeste 38 Nordeste 0 -- -- 63
2019-07-29 08:00:00 20 16 Nordeste 30 Nordeste 0 -- -- 65
2019-07-29 07:00:00 19.3 7 Norte 25 Nordeste 0 -- -- 71
2019-07-29 06:00:00 20 15 Nordeste 37 Nordeste 0 -- -- 69
2019-07-29 05:00:00 20.8 24 Nordeste 42 Nordeste 0 -- -- 64
2019-07-29 04:00:00 20.4 16 Nordeste 28 Nordeste 0 -- -- 67
2019-07-29 03:00:00 20.2 11 Nordeste 22 Nordeste 0 -- -- 70
2019-07-29 02:00:00 20.7 13 Nordeste 33 Nordeste 0 -- -- 65
2019-07-29 01:00:00 21.8 19 Nordeste 42 Nordeste 0 -- -- 59
2019-07-29 00:00:00 21.8 23 Nordeste 40 Nordeste 0 -- -- 59
2019-07-28 23:00:00 21.8 24 Nordeste 36 Nordeste 0 -- -- 61
2019-07-28 22:00:00 21.6 15 Norte 35 Nordeste 0 -- -- 64
2019-07-28 21:00:00 22.5 26 Nordeste 43 Nordeste 0 -- -- 62
2019-07-28 20:00:00 24.1 27 Nordeste 43 Nordeste 0 -- -- 59
2019-07-28 19:00:00 25.8 16 Norte 33 Norte 0 -- -- 56
2019-07-28 18:00:00 27.6 15 Noroeste 41 Noroeste 0 -- -- 54
2019-07-28 17:00:00 26.7 22 Nordeste 46 Nordeste 0 -- -- 59
2019-07-28 16:00:00 27.6 21 Norte 45 Norte 0 -- -- 57
2019-07-28 15:00:00 27.6 22 Nordeste 45 Nordeste 0 -- -- 57
2019-07-28 14:00:00 27.3 17 Nordeste 35 Sur 0 -- -- 60
2019-07-28 13:00:00 27.3 13 Norte 36 Norte 0 -- -- 57
2019-07-28 12:00:00 26.4 18 Nordeste 33 Nordeste 0 -- -- 59
2019-07-28 11:00:00 24.5 14 Nordeste 31 Nordeste 0 -- -- 66
2019-07-28 10:00:00 23.3 8 Sur 22 Nordeste 0 -- -- 67
2019-07-28 09:00:00 20.7 16 Nordeste 27 Nordeste 0 -- -- 75
2019-07-28 08:00:00 20.8 14 Nordeste 31 Nordeste 0 -- -- 73
2019-07-28 07:00:00 20.6 21 Nordeste 32 Nordeste 0 -- -- 74
2019-07-28 06:00:00 21 16 Nordeste 35 Nordeste 0 -- -- 70
2019-07-28 05:00:00 21.2 23 Nordeste 36 Nordeste 0 -- -- 68
2019-07-28 04:00:00 20.7 15 Nordeste 27 Nordeste 0 -- -- 70
2019-07-28 03:00:00 20.5 13 Nordeste 26 Nordeste 0 -- -- 67
2019-07-28 02:00:00 20.7 3 Este 20 Norte 0 -- -- 65
2019-07-28 01:00:00 21 14 Norte 32 Nordeste 0 -- -- 63
2019-07-28 00:00:00 20.8 17 Nordeste 25 Nordeste 0 -- -- 66
2019-07-27 23:00:00 21.6 13 Nordeste 24 Nordeste 0 -- -- 65
2019-07-27 22:00:00 22.4 16 Norte 34 Nordeste 0 -- -- 63
2019-07-26 11:00:00 -- -- -- -- -- -- -- -- --
2019-07-26 10:00:00 -- -- -- -- -- -- -- -- --
2019-07-26 09:00:00 -- -- -- -- -- -- -- -- --
2019-07-26 08:00:00 23.1 5 Norte 13 Norte 0 -- -- 40
2019-07-26 07:00:00 21.5 5 Norte 9 Norte 0 -- -- 50
2019-07-26 06:00:00 21.5 3 Nordeste 6 Sur 0 -- -- 51
2019-07-26 05:00:00 22.4 2 Sur 17 Norte 0 -- -- 53
2019-07-26 04:00:00 22.3 8 Norte 17 Norte 0 -- -- 56
2019-07-26 03:00:00 22.7 6 Norte 19 Nordeste 0 -- -- 54
2019-07-26 02:00:00 23.7 13 Norte 22 Nordeste 0 -- -- 50
2019-07-26 01:00:00 23.1 9 Norte 43 Nordeste 0 -- -- 55
2019-07-26 00:00:00 23.2 20 Norte 41 Nordeste 0 -- -- 56
2019-07-25 23:00:00 23.1 29 Nordeste 44 Nordeste 0 -- -- 60
2019-07-25 22:00:00 23.8 26 Nordeste 43 Nordeste 0 -- -- 53
2019-07-25 21:00:00 25 30 Nordeste 46 Nordeste 0 -- -- 48
2019-07-25 20:00:00 26.9 25 Nordeste 44 Nordeste 0 -- -- 49
2019-07-25 19:00:00 28.9 28 Nordeste 42 Nordeste 0 -- -- 44
2019-07-25 18:00:00 31.1 15 Nordeste 32 Norte 0 -- -- 41
2019-07-25 17:00:00 33 16 Sur 30 Nordeste 0 -- -- 31
2019-07-25 16:00:00 30.7 20 Nordeste 30 Nordeste 0 -- -- 44
2019-07-25 15:00:00 35.9 15 Sur 25 Sur 0 -- -- 29
2019-07-25 14:00:00 33.9 22 Sur 30 Sur 0 -- -- 29
2019-07-25 13:00:00 33 18 Sur 29 Sur 0 -- -- 32
2019-07-25 12:00:00 29.7 4 Oeste 26 Sur 0 -- -- 36
2019-07-25 11:00:00 29.4 13 Sur 24 Norte 0 -- -- 39
2019-07-25 10:00:00 26.8 13 Norte 20 Norte 0 -- -- 29
2019-07-25 09:00:00 23 5 Nordeste 13 Norte 0 -- -- 41
2019-07-25 08:00:00 21.6 5 Norte 8 Norte 0 -- -- 48
2019-07-25 07:00:00 21.1 2 Nordeste 6 Norte 0 -- -- 51
2019-07-25 06:00:00 20 4 Norte 8 Norte 0 -- -- 57
2019-07-25 05:00:00 20.5 5 Nordeste 9 Nordeste 0 -- -- 57
2019-07-25 04:00:00 21.4 2 Sur 22 Norte 0 -- -- 58
2019-07-25 03:00:00 22.2 17 Norte 26 Nordeste 0 -- -- 52
2019-07-25 02:00:00 21.8 2 Sudeste 22 Norte 0 -- -- 69
2019-07-25 01:00:00 23.9 13 Norte 24 Nordeste 0 -- -- 45
2019-07-25 00:00:00 23.5 13 Norte 22 Norte 0 -- -- 48
2019-07-24 23:00:00 21.9 4 Sudoeste 23 Nordeste 0 -- -- 72
2019-07-24 22:00:00 22.1 10 Norte 28 Nordeste 0 -- -- 65
2019-07-24 21:00:00 22.7 7 Sudoeste 27 Nordeste 0 -- -- 75
2019-07-24 20:00:00 25.8 17 Sur 24 Sur 0 -- -- 67
2019-07-24 19:00:00 28.7 20 Sur 26 Sur 0 -- -- 56
2019-07-24 18:00:00 31.4 13 Sur 25 Sur 0 -- -- 42
2019-07-24 17:00:00 30 16 Nordeste 32 Nordeste 0 -- -- 46
2019-07-24 16:00:00 31.8 10 Oeste 28 Sur 0 -- -- 43
2019-07-24 15:00:00 28.9 17 Nordeste 31 Nordeste 0 -- -- 49
2019-07-24 14:00:00 33.2 10 Sur 19 Sur 0 -- -- 39
2019-07-24 13:00:00 29.9 14 Sur 21 Sur 0 -- -- 54
2019-07-24 12:00:00 27.6 18 Sur 26 Sur 0 -- -- 57
2019-07-24 11:00:00 27.2 17 Sur 23 Sur 0 -- -- 52
2019-07-24 10:00:00 24.2 5 Sur 11 Nordeste 0 -- -- 45
2019-07-24 09:00:00 20.3 4 Nordeste 18 Norte 0 -- -- 57
2019-07-24 08:00:00 19.3 12 Norte 19 Norte 0 -- -- 68
2019-07-24 07:00:00 19.5 14 Norte 18 Norte 0 -- -- 66
2019-07-24 06:00:00 20.3 0 Calma 26 Norte 0 -- -- 56
2019-07-24 05:00:00 20.1 21 Norte 31 Norte 0 -- -- 64
2019-07-24 04:00:00 19.9 20 Norte 29 Norte 0 -- -- 66
2019-07-24 03:00:00 19.9 14 Norte 29 Norte 0 -- -- 65
2019-07-24 02:00:00 20.4 17 Norte 43 Nordeste 0 -- -- 63
2019-07-24 01:00:00 21.6 28 Nordeste 42 Nordeste 0 -- -- 55
2019-07-24 00:00:00 20.8 24 Nordeste 38 Nordeste 0 -- -- 61